createdAt,value
2022-08-19T00:00:24.815Z,2.42
2022-08-19T00:02:51.805Z,2.30
2022-08-19T00:05:19.316Z,2.40
2022-08-19T00:07:46.721Z,2.35
2022-08-19T00:10:15.415Z,2.58
2022-08-19T00:12:47.010Z,2.80
2022-08-19T00:15:15.473Z,2.92
2022-08-19T00:17:43.590Z,2.83
2022-08-19T00:20:18.602Z,2.58
2022-08-19T00:22:46.325Z,2.60
2022-08-19T00:25:13.343Z,3.13
2022-08-19T00:27:42.925Z,2.40
2022-08-19T00:30:11.522Z,2.28
2022-08-19T00:32:40.193Z,2.38
2022-08-19T00:35:07.581Z,2.20
2022-08-19T00:37:36.099Z,2.55
2022-08-19T00:40:05.144Z,2.70
2022-08-19T00:42:32.351Z,2.33
2022-08-19T00:44:59.226Z,2.50
2022-08-19T00:47:26.294Z,2.50
2022-08-19T00:49:57.009Z,2.42
2022-08-19T00:52:26.188Z,2.60
2022-08-19T00:54:54.316Z,2.45
2022-08-19T00:57:24.903Z,2.53
2022-08-19T01:00:01.491Z,2.70
2022-08-19T01:02:30.980Z,2.50
2022-08-19T01:04:58.139Z,2.30
2022-08-19T01:07:25.374Z,2.30
2022-08-19T01:09:52.795Z,2.08
2022-08-19T01:12:19.850Z,2.28
2022-08-19T01:14:48.099Z,1.90
2022-08-19T01:17:16.161Z,2.13
2022-08-19T01:19:44.754Z,2.42
2022-08-19T01:22:26.623Z,2.33
2022-08-19T01:24:55.262Z,2.08
2022-08-19T01:27:22.439Z,2.05
2022-08-19T01:29:49.571Z,2.30
2022-08-19T01:32:32.043Z,2.10
2022-08-19T01:35:02.549Z,2.30
2022-08-19T01:37:30.464Z,2.00
2022-08-19T01:39:57.546Z,2.03
2022-08-19T01:42:29.934Z,2.05
2022-08-19T01:44:57.935Z,1.92
2022-08-19T01:47:25.196Z,2.22
2022-08-19T01:49:52.131Z,2.10
2022-08-19T01:52:19.208Z,1.98
2022-08-19T01:54:46.182Z,2.08
2022-08-19T01:57:13.955Z,1.90
2022-08-19T01:59:41.922Z,1.85
2022-08-19T02:02:09.578Z,2.00
2022-08-19T02:04:38.735Z,2.10
2022-08-19T02:07:06.306Z,2.00
2022-08-19T02:09:33.350Z,2.00
2022-08-19T02:12:00.356Z,1.70
2022-08-19T02:14:27.420Z,2.15
2022-08-19T02:16:54.900Z,1.67
2022-08-19T02:19:21.886Z,1.90
2022-08-19T02:21:48.958Z,1.92
2022-08-19T02:24:15.894Z,2.10
2022-08-19T02:26:42.731Z,2.03
2022-08-19T02:29:09.642Z,1.67
2022-08-19T02:31:37.042Z,1.95
2022-08-19T02:34:04.209Z,1.88
2022-08-19T02:36:31.369Z,2.10
2022-08-19T02:38:58.310Z,1.70
2022-08-19T02:41:29.428Z,2.22
2022-08-19T02:46:44.490Z,1.75
2022-08-19T02:49:11.475Z,1.90
2022-08-19T02:51:44.718Z,2.10
2022-08-19T02:54:12.383Z,1.95
2022-08-19T02:56:40.069Z,1.73
2022-08-19T02:59:11.117Z,1.80
2022-08-19T03:01:40.818Z,1.73
2022-08-19T03:04:08.761Z,1.65
2022-08-19T03:06:39.967Z,2.03
2022-08-19T03:09:06.967Z,2.13
2022-08-19T03:11:34.063Z,1.95
2022-08-19T03:14:02.004Z,1.77
2022-08-19T03:16:30.073Z,2.10
2022-08-19T03:19:01.232Z,1.88
2022-08-19T03:21:28.982Z,2.00
2022-08-19T03:23:56.865Z,1.75
2022-08-19T03:26:23.833Z,1.90
2022-08-19T03:28:58.258Z,1.95
2022-08-19T03:31:43.552Z,1.63
2022-08-19T03:34:15.854Z,1.65
2022-08-19T03:36:43.013Z,1.58
2022-08-19T03:39:10.768Z,1.77
2022-08-19T03:41:44.465Z,1.70
2022-08-19T03:44:21.872Z,1.70
2022-08-19T03:46:50.967Z,1.80
2022-08-19T03:49:18.658Z,1.58
2022-08-19T03:51:47.482Z,1.52
2022-08-19T03:54:15.788Z,1.63
2022-08-19T03:56:43.620Z,1.60
2022-08-19T03:59:12.672Z,1.85
2022-08-19T04:01:39.618Z,1.88
2022-08-19T04:04:06.886Z,1.67
2022-08-19T04:06:35.628Z,1.80
2022-08-19T04:09:07.026Z,1.77
2022-08-19T04:11:44.482Z,1.75
2022-08-19T04:14:13.575Z,1.90
2022-08-19T04:16:40.660Z,2.13
2022-08-19T04:19:07.801Z,1.55
2022-08-19T04:21:34.905Z,2.00
2022-08-19T04:24:03.801Z,1.83
2022-08-19T04:26:33.560Z,1.60
2022-08-19T04:29:02.065Z,1.80
2022-08-19T04:31:30.283Z,1.60
2022-08-19T04:33:58.581Z,1.50
2022-08-19T04:36:27.292Z,1.27
2022-08-19T04:38:55.626Z,1.40
2022-08-19T04:41:41.275Z,1.40
2022-08-19T04:44:08.494Z,1.35
2022-08-19T04:46:39.958Z,1.05
2022-08-19T04:49:18.961Z,1.10
2022-08-19T04:51:46.861Z,1.30
2022-08-19T04:54:13.801Z,1.30
2022-08-19T04:56:41.640Z,0.90
2022-08-19T04:59:09.602Z,1.00
2022-08-19T05:01:37.566Z,1.10
2022-08-19T05:04:05.781Z,1.10
2022-08-19T05:06:36.195Z,0.90
2022-08-19T05:09:06.415Z,0.90
2022-08-19T05:11:35.540Z,0.70
2022-08-19T05:14:02.738Z,0.80
2022-08-19T05:16:29.721Z,1.00
2022-08-19T05:19:15.178Z,0.60
2022-08-19T05:22:01.701Z,0.73
2022-08-19T05:24:29.271Z,0.60
2022-08-19T05:26:58.139Z,0.70
2022-08-19T05:29:26.165Z,0.60
2022-08-19T05:31:59.384Z,0.60
2022-08-19T05:34:27.135Z,0.60
2022-08-19T05:36:57.351Z,0.50
2022-08-19T05:39:26.443Z,0.40
2022-08-19T05:41:55.708Z,0.50
2022-08-19T05:44:23.151Z,0.50
2022-08-19T05:46:50.177Z,0.70
2022-08-19T05:49:17.145Z,0.70
2022-08-19T05:51:44.214Z,0.60
2022-08-19T05:54:14.424Z,0.60
2022-08-19T05:56:42.347Z,0.50
2022-08-19T05:59:11.622Z,0.50
2022-08-19T06:01:39.510Z,0.50
2022-08-19T06:04:08.229Z,0.70
2022-08-19T06:06:35.912Z,0.57
2022-08-19T06:09:04.216Z,0.70
2022-08-19T06:11:37.285Z,0.73
2022-08-19T06:14:06.248Z,0.57
2022-08-19T06:16:36.157Z,0.60
2022-08-19T06:19:04.546Z,0.60
2022-08-19T06:21:31.882Z,0.70
2022-08-19T06:23:59.179Z,0.80
2022-08-19T06:26:27.512Z,0.70
2022-08-19T06:28:54.544Z,0.90
2022-08-19T06:31:23.020Z,0.80
2022-08-19T06:33:50.637Z,0.73
2022-08-19T06:36:32.704Z,0.70
2022-08-19T06:39:00.378Z,0.63
2022-08-19T06:41:27.480Z,0.80
2022-08-19T06:43:56.326Z,0.70
2022-08-19T06:46:23.559Z,0.70
2022-08-19T06:48:50.967Z,0.90
2022-08-19T06:51:21.308Z,1.65
2022-08-19T06:56:22.789Z,0.65
2022-08-19T06:58:52.929Z,0.63
2022-08-19T07:01:20.573Z,0.68
2022-08-19T07:03:47.509Z,0.63
2022-08-19T07:06:43.770Z,1.05
2022-08-19T07:09:07.138Z,0.68
2022-08-19T07:11:34.389Z,0.70
2022-08-19T07:14:01.718Z,0.65
2022-08-19T07:16:29.715Z,0.70
2022-08-19T07:18:57.981Z,0.88
2022-08-19T07:21:29.629Z,0.80
2022-08-19T07:23:57.812Z,0.57
2022-08-19T07:26:27.922Z,0.80
2022-08-19T07:28:55.297Z,0.70
2022-08-19T07:31:26.414Z,0.80
2022-08-19T07:33:58.069Z,0.70
2022-08-19T07:36:26.544Z,0.80
2022-08-19T07:38:55.491Z,0.80
2022-08-19T07:41:24.741Z,0.80
2022-08-19T07:43:52.710Z,0.77
2022-08-19T07:46:21.621Z,0.70
2022-08-19T07:48:50.374Z,0.70
2022-08-19T07:51:35.932Z,0.75
2022-08-19T07:54:04.048Z,0.60
2022-08-19T07:56:31.155Z,0.90
2022-08-19T07:58:58.172Z,1.00
2022-08-19T08:01:26.309Z,1.00
2022-08-19T08:04:12.292Z,0.95
2022-08-19T08:06:58.055Z,1.20
2022-08-19T08:09:27.707Z,0.90
2022-08-19T08:12:02.023Z,1.00
2022-08-19T08:14:35.158Z,1.02
2022-08-19T08:17:02.803Z,1.02
2022-08-19T08:19:37.907Z,0.90
2022-08-19T08:22:07.088Z,1.10
2022-08-19T08:24:35.179Z,1.20
2022-08-19T08:27:02.327Z,1.10
2022-08-19T08:29:34.625Z,0.80
2022-08-19T08:32:02.619Z,1.10
2022-08-19T08:34:29.579Z,0.90
2022-08-19T08:36:57.011Z,0.98
2022-08-19T08:39:24.021Z,0.70
2022-08-19T08:42:00.895Z,0.80
2022-08-19T08:44:50.448Z,0.80
2022-08-19T08:47:21.774Z,0.88
2022-08-19T08:49:52.511Z,1.00
2022-08-19T08:52:24.610Z,0.80
2022-08-19T08:55:00.363Z,1.02
2022-08-19T08:57:40.621Z,0.73
2022-08-19T09:00:15.151Z,0.90
2022-08-19T09:02:43.808Z,1.10
2022-08-19T09:05:16.624Z,0.90
2022-08-19T09:07:55.082Z,0.93
2022-08-19T09:10:30.979Z,1.13
2022-08-19T09:13:13.355Z,1.10
2022-08-19T09:15:43.430Z,1.10
2022-08-19T09:18:15.411Z,1.10
2022-08-19T09:20:48.012Z,1.00
2022-08-19T09:23:15.274Z,1.30
2022-08-19T09:25:42.477Z,1.00
2022-08-19T09:28:22.243Z,1.05
2022-08-19T09:30:49.751Z,1.30
2022-08-19T09:33:21.000Z,1.30
2022-08-19T09:35:53.246Z,1.25
2022-08-19T09:38:21.605Z,1.33
2022-08-19T09:40:48.617Z,0.95
2022-08-19T09:43:15.597Z,1.27
2022-08-19T09:46:02.321Z,1.38
2022-08-19T09:48:29.267Z,1.00
2022-08-19T09:51:03.796Z,1.00
2022-08-19T09:53:32.193Z,1.40
2022-08-19T09:56:01.291Z,1.10
2022-08-19T09:58:31.447Z,1.00
2022-08-19T10:00:59.487Z,1.30
2022-08-19T10:03:29.863Z,1.50
2022-08-19T10:05:59.105Z,1.50
2022-08-19T10:08:28.147Z,1.77
2022-08-19T10:10:56.068Z,1.65
2022-08-19T10:13:26.045Z,1.77
2022-08-19T10:15:54.078Z,1.45
2022-08-19T10:18:23.038Z,1.83
2022-08-19T10:20:51.559Z,1.60
2022-08-19T10:23:20.852Z,1.83
2022-08-19T10:25:48.839Z,1.85
2022-08-19T10:28:16.342Z,1.85
2022-08-19T10:30:47.563Z,1.92
2022-08-19T10:33:38.557Z,1.70
2022-08-19T10:36:08.712Z,2.00
2022-08-19T10:38:35.693Z,1.85
2022-08-19T10:41:13.950Z,1.90
2022-08-19T10:43:41.465Z,1.77
2022-08-19T10:46:14.120Z,2.50
2022-08-19T10:48:44.249Z,1.70
2022-08-19T10:51:32.743Z,2.10
2022-08-19T10:54:04.129Z,1.65
2022-08-19T10:56:52.936Z,1.77
2022-08-19T10:59:22.151Z,1.52
2022-08-19T11:01:54.274Z,1.63
2022-08-19T11:04:29.517Z,1.30
2022-08-19T11:06:56.862Z,1.65
2022-08-19T11:09:33.940Z,1.50
2022-08-19T11:12:05.004Z,1.42
2022-08-19T11:14:34.397Z,1.52
2022-08-19T11:17:02.054Z,1.38
2022-08-19T11:19:29.048Z,1.35
2022-08-19T11:21:58.885Z,1.20
2022-08-19T11:24:28.673Z,1.25
2022-08-19T11:27:01.186Z,1.15
2022-08-19T11:29:29.025Z,1.35
2022-08-19T11:31:56.404Z,1.73
2022-08-19T11:34:27.408Z,1.27
2022-08-19T11:36:58.013Z,1.30
2022-08-19T11:39:26.009Z,1.33
2022-08-19T11:41:53.133Z,1.30
2022-08-19T11:44:20.207Z,1.20
2022-08-19T11:46:48.452Z,1.13
2022-08-19T11:49:29.687Z,1.50
2022-08-19T11:51:58.865Z,1.58
2022-08-19T11:54:26.494Z,1.20
2022-08-19T11:56:53.521Z,1.23
2022-08-19T11:59:25.031Z,1.27
2022-08-19T12:01:52.167Z,1.10
2022-08-19T12:04:22.012Z,1.30
2022-08-19T12:06:49.258Z,1.20
2022-08-19T12:09:19.013Z,1.02
2022-08-19T12:11:46.687Z,1.20
2022-08-19T12:14:15.282Z,1.13
2022-08-19T12:16:49.108Z,1.20
2022-08-19T12:19:22.416Z,1.15
2022-08-19T12:21:50.344Z,1.40
2022-08-19T12:24:24.417Z,1.60
2022-08-19T12:26:53.641Z,1.30
2022-08-19T12:29:23.737Z,1.20
2022-08-19T12:31:52.040Z,1.30
2022-08-19T12:34:21.331Z,1.60
2022-08-19T12:36:50.724Z,1.40
2022-08-19T12:39:22.592Z,1.27
2022-08-19T12:41:55.241Z,1.33
2022-08-19T12:44:28.853Z,1.38
2022-08-19T12:46:57.768Z,1.30
2022-08-19T12:49:43.548Z,1.13
2022-08-19T12:52:32.340Z,1.20
2022-08-19T12:54:59.516Z,1.10
2022-08-19T12:57:32.909Z,1.02
2022-08-19T13:00:04.089Z,1.30
2022-08-19T13:02:38.298Z,1.05
2022-08-19T13:05:07.975Z,1.15
2022-08-19T13:07:35.763Z,1.27
2022-08-19T13:10:02.855Z,1.30
2022-08-19T13:12:29.920Z,0.90
2022-08-19T13:14:57.221Z,1.05
2022-08-19T13:17:35.380Z,1.00
2022-08-19T13:20:03.760Z,1.10
2022-08-19T13:22:30.912Z,1.25
2022-08-19T13:24:58.052Z,1.10
2022-08-19T13:27:25.013Z,0.93
2022-08-19T13:30:10.378Z,1.02
2022-08-19T13:32:55.838Z,0.95
2022-08-19T13:35:22.831Z,1.13
2022-08-19T13:37:49.753Z,0.93
2022-08-19T13:40:19.657Z,1.23
2022-08-19T13:42:48.458Z,0.85
2022-08-19T13:45:16.344Z,1.10
2022-08-19T13:47:46.360Z,1.00
2022-08-19T13:50:16.965Z,1.00
2022-08-19T13:52:44.372Z,1.13
2022-08-19T13:55:15.435Z,1.08
2022-08-19T13:57:57.031Z,1.30
2022-08-19T14:00:25.819Z,1.00
2022-08-19T14:02:53.817Z,1.00
2022-08-19T14:05:21.584Z,1.23
2022-08-19T14:07:49.550Z,1.30
2022-08-19T14:10:17.211Z,1.00
2022-08-19T14:12:45.329Z,0.93
2022-08-19T14:15:12.871Z,1.10
2022-08-19T14:17:40.707Z,1.00
2022-08-19T14:20:11.011Z,1.20
2022-08-19T14:22:39.166Z,0.98
2022-08-19T14:25:07.686Z,0.90
2022-08-19T14:27:38.144Z,1.02
2022-08-19T14:30:05.985Z,1.05
2022-08-19T14:32:32.908Z,1.17
2022-08-19T14:34:59.854Z,1.05
2022-08-19T14:37:27.072Z,1.20
2022-08-19T14:39:55.520Z,1.23
2022-08-19T14:42:24.968Z,1.58
2022-08-19T14:44:54.700Z,1.40
2022-08-19T14:47:21.603Z,1.27
2022-08-19T14:49:53.026Z,1.05
2022-08-19T14:52:21.486Z,1.23
2022-08-19T14:54:50.949Z,1.20
2022-08-19T14:57:18.457Z,1.30
2022-08-19T14:59:45.473Z,1.00
2022-08-19T15:02:34.262Z,1.05
2022-08-19T15:04:59.806Z,0.90
2022-08-19T15:07:28.991Z,1.10
2022-08-19T15:09:56.763Z,1.00
2022-08-19T15:12:23.890Z,1.30
2022-08-19T15:14:56.794Z,1.20
2022-08-19T15:17:45.840Z,1.10
2022-08-19T15:20:12.374Z,1.05
2022-08-19T15:22:39.990Z,1.00
2022-08-19T15:25:07.952Z,1.10
2022-08-19T15:27:35.793Z,1.38
2022-08-19T15:30:02.860Z,1.42
2022-08-19T15:32:30.803Z,1.00
2022-08-19T15:34:57.771Z,1.23
2022-08-19T15:37:25.342Z,1.13
2022-08-19T15:39:52.511Z,1.35
2022-08-19T15:42:29.550Z,1.52
2022-08-19T15:45:00.237Z,1.30
2022-08-19T15:47:29.519Z,1.17
2022-08-19T15:50:10.489Z,1.40
2022-08-19T15:52:49.259Z,1.20
2022-08-19T15:55:32.585Z,1.50
2022-08-19T15:58:28.354Z,1.40
2022-08-19T16:01:21.682Z,1.02
2022-08-19T16:04:14.356Z,1.25
2022-08-19T16:06:52.388Z,1.20
2022-08-19T16:09:25.080Z,1.40
2022-08-19T16:11:56.789Z,1.25
2022-08-19T16:14:24.727Z,1.50
2022-08-19T16:16:52.014Z,1.33
2022-08-19T16:19:20.570Z,1.60
2022-08-19T16:21:48.532Z,1.30
2022-08-19T16:24:17.764Z,1.55
2022-08-19T16:26:45.458Z,1.45
2022-08-19T16:29:13.058Z,1.50
2022-08-19T16:31:41.575Z,1.25
2022-08-19T16:34:08.600Z,1.30
2022-08-19T16:36:35.825Z,1.27
2022-08-19T16:39:03.995Z,1.40
2022-08-19T16:41:31.204Z,1.48
2022-08-19T16:43:58.361Z,1.20
2022-08-19T16:46:27.068Z,1.40
2022-08-19T16:48:54.725Z,1.20
2022-08-19T16:51:22.949Z,1.60
2022-08-19T16:53:52.733Z,1.40
2022-08-19T16:56:20.366Z,1.30
2022-08-19T16:58:47.917Z,1.38
2022-08-19T17:01:14.933Z,1.70
2022-08-19T17:03:41.969Z,1.50
2022-08-19T17:06:18.513Z,1.35
2022-08-19T17:08:51.297Z,1.30
2022-08-19T17:11:19.767Z,1.70
2022-08-19T17:13:48.040Z,1.27
2022-08-19T17:16:20.052Z,1.38
2022-08-19T17:18:46.969Z,1.42
2022-08-19T17:21:15.555Z,1.27
2022-08-19T17:23:44.046Z,1.50
2022-08-19T17:26:18.402Z,1.65
2022-08-19T17:28:50.789Z,1.50
2022-08-19T17:31:19.034Z,1.60
2022-08-19T17:33:48.791Z,1.50
2022-08-19T17:36:26.685Z,1.70
2022-08-19T17:38:55.459Z,1.70
2022-08-19T17:41:24.285Z,1.38
2022-08-19T17:43:51.751Z,1.55
2022-08-19T17:46:19.486Z,1.40
2022-08-19T17:48:52.538Z,1.25
2022-08-19T17:51:22.898Z,1.20
2022-08-19T17:53:51.226Z,1.30
2022-08-19T17:56:18.811Z,1.40
2022-08-19T17:58:57.680Z,1.00
2022-08-19T18:01:43.922Z,1.10
2022-08-19T18:04:17.445Z,1.52
2022-08-19T18:06:45.755Z,1.10
2022-08-19T18:09:20.600Z,1.25
2022-08-19T18:11:52.426Z,1.20
2022-08-19T18:14:20.833Z,1.23
2022-08-19T18:16:50.085Z,1.15
2022-08-19T18:19:18.005Z,1.00
2022-08-19T18:21:45.155Z,1.30
2022-08-19T18:24:12.870Z,1.17
2022-08-19T18:26:39.987Z,1.33
2022-08-19T18:29:07.602Z,0.93
2022-08-19T18:31:34.544Z,1.00
2022-08-19T18:34:01.593Z,1.45
2022-08-19T18:36:52.918Z,1.10
2022-08-19T18:39:44.389Z,1.00
2022-08-19T18:42:34.647Z,1.10
2022-08-19T18:45:20.206Z,1.20
2022-08-19T18:48:05.863Z,1.10
2022-08-19T18:50:34.941Z,1.35
2022-08-19T18:53:04.418Z,1.38
2022-08-19T18:55:33.667Z,0.98
2022-08-19T18:58:04.754Z,1.10
2022-08-19T19:02:58.790Z,1.10
2022-08-19T19:05:25.863Z,1.20
2022-08-19T19:07:54.355Z,0.90
2022-08-19T19:10:21.407Z,1.20
2022-08-19T19:12:50.192Z,1.38
2022-08-19T19:15:17.362Z,1.35
2022-08-19T19:17:45.870Z,1.15
2022-08-19T19:20:12.975Z,1.20
2022-08-19T19:22:40.319Z,1.10
2022-08-19T19:25:08.387Z,1.00
2022-08-19T19:27:35.690Z,1.40
2022-08-19T19:30:02.890Z,1.25
2022-08-19T19:32:38.662Z,1.27
2022-08-19T19:35:06.796Z,1.20
2022-08-19T19:37:33.961Z,1.15
2022-08-19T19:40:01.372Z,1.00
2022-08-19T19:42:28.716Z,1.10
2022-08-19T19:44:57.737Z,0.85
2022-08-19T19:47:30.477Z,0.95
2022-08-19T19:50:13.650Z,0.90
2022-08-19T19:52:43.688Z,1.08
2022-08-19T19:55:18.306Z,1.00
2022-08-19T19:57:46.606Z,1.10
2022-08-19T20:00:16.481Z,0.90
2022-08-19T20:02:49.826Z,0.98
2022-08-19T20:05:21.226Z,1.27
2022-08-19T20:08:08.013Z,1.00
2022-08-19T20:10:35.121Z,1.10
2022-08-19T20:13:02.863Z,1.15
2022-08-19T20:15:31.508Z,1.05
2022-08-19T20:17:59.525Z,1.20
2022-08-19T20:20:26.717Z,1.20
2022-08-19T20:22:54.117Z,0.90
2022-08-19T20:25:23.460Z,1.20
2022-08-19T20:27:50.715Z,1.10
2022-08-19T20:30:21.903Z,1.20
2022-08-19T20:32:50.527Z,1.42
2022-08-19T20:35:19.449Z,1.10
2022-08-19T20:37:46.880Z,1.30
2022-08-19T20:40:14.367Z,1.20
2022-08-19T20:42:42.136Z,1.10
2022-08-19T20:45:30.919Z,1.00
2022-08-19T20:47:57.433Z,1.10
2022-08-19T20:50:24.469Z,1.40
2022-08-19T20:52:53.660Z,1.02
2022-08-19T20:55:22.048Z,1.20
2022-08-19T20:57:49.072Z,0.93
2022-08-19T21:00:16.062Z,1.10
2022-08-19T21:02:43.090Z,1.10
2022-08-19T21:05:10.080Z,1.38
2022-08-19T21:07:39.307Z,1.20
2022-08-19T21:10:07.091Z,1.20
2022-08-19T21:12:33.938Z,0.80
2022-08-19T21:15:00.883Z,1.00
2022-08-19T21:17:27.780Z,1.10
2022-08-19T21:19:54.704Z,1.13
2022-08-19T21:22:21.574Z,1.00
2022-08-19T21:24:48.837Z,1.13
2022-08-19T21:27:16.004Z,1.00
2022-08-19T21:29:43.291Z,0.88
2022-08-19T21:32:15.141Z,0.95
2022-08-19T21:34:43.701Z,1.15
2022-08-19T21:37:25.129Z,1.20
2022-08-19T21:39:53.675Z,0.90
2022-08-19T21:42:21.217Z,1.05
2022-08-19T21:44:48.297Z,1.08
2022-08-19T21:47:15.181Z,1.00
2022-08-19T21:49:42.342Z,1.05
2022-08-19T21:52:09.375Z,1.10
2022-08-19T21:54:38.409Z,1.20
2022-08-19T21:57:10.197Z,1.08
2022-08-19T21:59:44.065Z,1.20
2022-08-19T22:02:20.802Z,0.90
2022-08-19T22:04:51.680Z,1.10
2022-08-19T22:07:20.471Z,1.05
2022-08-19T22:09:48.237Z,1.30
2022-08-19T22:12:29.072Z,1.02
2022-08-19T22:14:56.974Z,1.05
2022-08-19T22:17:24.353Z,1.08
2022-08-19T22:19:52.587Z,1.10
2022-08-19T22:22:30.828Z,1.20
2022-08-19T22:25:03.286Z,1.27
2022-08-19T22:27:30.176Z,0.70
2022-08-19T22:29:57.111Z,1.10
2022-08-19T22:32:26.999Z,1.00
2022-08-19T22:34:58.147Z,0.73
2022-08-19T22:37:25.558Z,0.90
2022-08-19T22:39:52.452Z,0.90
2022-08-19T22:42:20.249Z,1.00
2022-08-19T22:44:47.423Z,1.10
2022-08-19T22:47:14.726Z,0.88
2022-08-19T22:49:41.698Z,0.80
2022-08-19T22:52:17.683Z,0.90
2022-08-19T22:54:49.255Z,1.00
2022-08-19T22:57:16.935Z,0.88
2022-08-19T22:59:43.878Z,0.90
2022-08-19T23:02:10.794Z,1.33
2022-08-19T23:04:38.437Z,0.90
2022-08-19T23:07:05.552Z,1.02
2022-08-19T23:09:32.495Z,1.10
2022-08-19T23:12:00.749Z,0.95
2022-08-19T23:14:28.330Z,0.90
2022-08-19T23:16:58.919Z,0.90
2022-08-19T23:19:26.324Z,1.52
2022-08-19T23:21:53.547Z,1.10
2022-08-19T23:24:20.821Z,1.13
2022-08-19T23:27:06.480Z,1.15
2022-08-19T23:29:51.813Z,1.02
2022-08-19T23:32:20.272Z,1.55
2022-08-19T23:34:47.362Z,0.90
2022-08-19T23:37:14.968Z,0.80
2022-08-19T23:39:42.734Z,1.05
2022-08-19T23:42:11.902Z,1.00
2022-08-19T23:44:51.331Z,0.82
2022-08-19T23:47:19.667Z,1.25
2022-08-19T23:49:47.544Z,1.13
2022-08-19T23:52:14.513Z,1.02
2022-08-19T23:54:43.477Z,0.93
2022-08-19T23:57:13.534Z,1.02
2022-08-19T23:59:42.600Z,1.10
